Nearby METAR Reports

 

EDNY - Friedrichshafen, Germany
Distance from station: ONO 32km
aktuell: 22.07.2017 23:50
sehr leichter Niederschlag, geschlossene Wolkendecke
sehr leichter Niederschlag, geschlossene Wolkendecke
 Wind von varies
Wind: varies 6 km/h
Temperatur: 20°C
Taupunkt: 16°C
Luftfeuchte: 78%
Luftdruck: 1016 hPa
Zusammenfassung: sehr leichter Niederschlag
Clouds: geschlossene Wolkendecke
Visibility: 10 km
Cloud details: teilweise bewölkt 2286 m
geschlossene Wolkendecke 2682 m
2017/07/22 21:50 EDNY 222150Z AUTO VRB03KT 9999 -RA SCT075 OVC088 20/16 Q1016
LSZR - Rheineck/Altenrh, Switzerland
Distance from station: OSO 37km
aktuell: 23.07.2017 00:20
Thunderstorm rain, stark bewölkt
Thunderstorm rain, stark bewölkt
 Wind von W
Wind: W 17 km/h
Temperatur: 17°C
Taupunkt: 15°C
Luftfeuchte: 88%
Luftdruck: 1018 hPa
Zusammenfassung: Thunderstorm Rain
Clouds: stark bewölkt
Visibility: 10 km
Cloud details: stark bewölkt 1829 m
2017/07/22 22:20 LSZR 222220Z AUTO 27009KT 9999 TSRA BKN060CB 17/15 Q1018
LSMD - Dubendorf, Switzerland
Distance from station: SW 40km
aktuell: 22.07.2017 23:50
Regen, geschlossene Wolkendecke
Regen, geschlossene Wolkendecke
 Wind von SSO
Wind: SSO 15 km/h
Temperatur: 17°C
Taupunkt: 15°C
Luftfeuchte: 88%
Luftdruck: 1017 hPa
Zusammenfassung: Regen
Clouds: geschlossene Wolkendecke
Visibility: 16 miles
Cloud details: Few Clouds 579 m
teilweise bewölkt 1006 m
geschlossene Wolkendecke 2865 m
2017/07/22 21:50 LSMD 222150Z AUTO 15008KT 110V170 9999NDV RA FEW019 SCT033 OVC094 17/15 Q1017 RERA RMK
 
LSZH - Zurich-Kloten (a, Switzerland
Distance from station: WSW 44km
aktuell: 23.07.2017 00:20
stark bewölkt
stark bewölkt
 Wind von O
Wind: O 9 km/h
Temperatur: 18°C
Taupunkt: 15°C
Luftfeuchte: 83%
Luftdruck: 1017 hPa
Clouds: stark bewölkt
Visibility: 10 km
Cloud details: Few Clouds 2134 m
stark bewölkt 3353 m
2017/07/22 22:20 LSZH 222220Z 08005KT 030V120 9999 FEW070 BKN110 18/15 Q1017 TEMPO SHRA
LOIH - Hohenems-Dornbir, Austria
Distance from station: OSO 51km
aktuell: 31.10.2016 17:00
NOT Current
geschlossene Wolkendecke
geschlossene Wolkendecke
 Wind von calm
Wind: Windstill
Temperatur: 10°C
Taupunkt: 9°C
Luftfeuchte: 94%
Luftdruck: 1026 hPa
Clouds: geschlossene Wolkendecke
Cloud details: geschlossene Wolkendecke 305 m
2016/10/31 16:00 LOIH 311600Z 00000KT 10KM OVC010ST 10/09 Q1026 RMK OVC
LSME - Emmen, Switzerland
Distance from station: SW 82km
aktuell: 22.07.2017 23:54
sehr leichter Niederschlag, Showers, stark bewölkt
sehr leichter Niederschlag, Showers, stark bewölkt
 Wind von calm
Wind: Windstill
Temperatur: 16°C
Taupunkt: 16°C
Luftfeuchte: 100%
Luftdruck: 1017 hPa
Zusammenfassung: sehr leichter Niederschlag, Showers
Clouds: stark bewölkt
Visibility: 16 miles
Cloud details: stark bewölkt 3353 m
stark bewölkt 4267 m
2017/07/22 21:54 LSME 222154Z AUTO 00000KT 9999NDV -SHRA BKN110 BKN140 16/16 Q1017 RMK
 
LSZC - Buochs, Switzerland
Distance from station: SW 89km
aktuell: 23.07.2017 00:20
stark bewölkt
stark bewölkt
 Wind von NO
Wind: NO 6 km/h
Temperatur: 18°C
Taupunkt: 16°C
Luftfeuchte: 88%
Luftdruck: 1017 hPa
Clouds: stark bewölkt
Visibility: 10 km
Cloud details: stark bewölkt 2743 m
stark bewölkt 3353 m
2017/07/22 22:20 LSZC 222220Z AUTO 04003KT 300V120 9999 BKN090 BKN110 18/16 Q1017
ETHL - Laupheim (ger-Ar, Germany
Distance from station: NO 92km
aktuell: 23.07.2017 00:20
sehr leichter Niederschlag, Showers, stark bewölkt
sehr leichter Niederschlag, Showers, stark bewölkt
 Wind von SW
Wind: SW 9 km/h
Temperatur: 19°C
Taupunkt: 16°C
Luftfeuchte: 83%
Luftdruck: 1016 hPa
Zusammenfassung: sehr leichter Niederschlag, Showers
Clouds: stark bewölkt
Visibility: 10 km
Cloud details: Few Clouds 1524 m
teilweise bewölkt 1829 m
stark bewölkt 3353 m
2017/07/22 22:20 ETHL 222220Z 23005KT 9999 -SHRA FEW050CB SCT060 BKN110 19/16 Q1016 BLU
EDJA - Memmingen Allgau, Germany
Distance from station: ONO 95km
aktuell: 22.07.2017 21:50
NOT Current
klar
klar
 Wind von SSO
Wind: SSO 6 km/h
Temperatur: 18°C
Taupunkt: 15°C
Luftfeuchte: 83%
Luftdruck: 1016 hPa
Zusammenfassung: klar
Visibility: greater than 10 km
2017/07/22 19:50 EDJA 221950Z 15003KT CAVOK 18/15 Q1016
 
LSMA - Alpnach, Switzerland
Distance from station: SW 95km
aktuell: 21.07.2017 16:50
NOT Current
stark bewölkt
stark bewölkt
 Wind von varies
Wind: varies 4 km/h
Temperatur: 26°C
Taupunkt: 19°C
Luftfeuchte: 65%
Luftdruck: 1011 hPa
Clouds: stark bewölkt
Visibility: 10 km
Cloud details: teilweise bewölkt 1829 m
stark bewölkt 6096 m
2017/07/21 14:50 LSMA 211450Z VRB02KT 9999 SCT060 BKN200 26/19 Q1011 RMK BLU+